Decoded Metar for KAKH (GASTONIA in NC, USA) (IATA:AKH) | Meteo·Mobile Aviation Weather
aviador You're here:

KAKH Decoded Metar

GASTONIA in NC, USA
Report Time2019-02-16 07:46:00
UTC Time2019-02-16 07:58:59
Flight Rules lifr LIFR
WindCalm
Visibility6437 m
Phenomena:Light Rain
Mist
Clouds:Overcast 004 Hf
Expected CloudBase > 400 ft AGL from Temp-Dew spread
Ceiling400 ft
Temp13°C (ISA -0)
Dew Point12°C (94% RH)
QNH1007 hPa
Density Alt1,142 ft
Elevation797 ft
Report Wrong Elevation
Raw Report
KAKH 160746Z AUTO 00000KT 4SM -RA BR OVC004 13/12 A2974 RMK AO2
P0003 T01330117=

Extra information for KAKH:More info

Metar Taf Metar & Taf Last 4 Metars F.Rules Stats Wind Profile Meteogram Temp Stats Airport Information Weather charts Add Link Nearby VenuesMetar ALERT Operation Metar Decoded Social comments

AIRNAV info for KAKH